Time;durP1;ratioP1;P1;durP2;ratioP2;P2;SDS_P1;SDS_P2;PMS_P1;PMS_P2;Temp;Humidity;BMP_temperature;BMP_pressure;BME280_temperature;BME280_humidity;BME280_pressure;Samples;Min_cycle;Max_cycle;Signal;HPM_P1;HPM_P2
2022/05/12 00:00:06;;;;;;;2.97;2.70;;;19.50;59.50;20.00;96396.00;;;;5076227;28;20194;-82
2022/05/12 00:02:34;;;;;;;2.80;2.60;;;19.50;59.70;20.00;96395.00;;;;5069003;28;20201;-81
2022/05/12 00:05:02;;;;;;;2.53;2.43;;;19.40;59.70;19.90;96398.00;;;;5081910;28;20215;-81
2022/05/12 00:07:29;;;;;;;2.97;2.73;;;19.40;59.70;19.90;96400.00;;;;5090685;28;20610;-81
2022/05/12 00:09:57;;;;;;;3.40;2.43;;;19.40;59.80;19.90;96396.00;;;;5082906;28;20207;-82
2022/05/12 00:12:24;;;;;;;2.63;2.40;;;19.40;59.90;19.90;96387.00;;;;5075628;28;20637;-81
2022/05/12 00:14:51;;;;;;;2.70;2.50;;;19.30;59.90;19.80;96386.00;;;;5079535;22;20216;-85
2022/05/12 00:17:19;;;;;;;2.33;2.07;;;19.30;59.90;19.80;96389.00;;;;5054479;28;20215;-84
2022/05/12 00:19:47;;;;;;;2.97;2.77;;;19.30;60.00;19.80;96386.00;;;;5054526;28;20210;-84
2022/05/12 00:22:14;;;;;;;2.53;2.33;;;19.20;60.10;19.70;96394.00;;;;5050265;28;20201;-85
2022/05/12 00:24:41;;;;;;;2.40;2.20;;;19.20;60.20;19.70;96389.00;;;;5039324;28;20223;-84
2022/05/12 00:27:09;;;;;;;2.90;2.70;;;19.20;60.40;19.70;96392.00;;;;5054040;28;20231;-84
2022/05/12 00:29:37;;;;;;;2.90;2.70;;;19.20;60.60;19.70;96389.00;;;;5054715;28;20266;-85
2022/05/12 00:32:04;;;;;;;2.87;2.67;;;19.10;60.80;19.60;96389.00;;;;5054277;28;20288;-84
2022/05/12 00:34:31;;;;;;;3.53;2.93;;;19.10;60.80;19.60;96388.00;;;;5054264;28;20219;-84
2022/05/12 00:37:00;;;;;;;2.90;2.70;;;19.10;61.00;19.60;96389.00;;;;5054562;28;20208;-85
2022/05/12 00:39:27;;;;;;;2.63;2.40;;;19.00;61.20;19.50;96386.00;;;;5050946;28;20203;-85
2022/05/12 00:41:54;;;;;;;2.43;2.30;;;19.00;61.50;19.50;96388.00;;;;5054463;28;20193;-84
2022/05/12 00:44:21;;;;;;;2.43;2.20;;;19.00;61.50;19.50;96391.00;;;;5054388;28;20230;-85
2022/05/12 00:46:50;;;;;;;3.03;2.77;;;19.00;61.60;19.40;96389.00;;;;5053878;28;20569;-85
2022/05/12 00:49:24;;;;;;;3.37;2.50;;;18.90;61.70;19.40;96388.00;;;;5054351;28;20596;-83
2022/05/12 00:51:57;;;;;;;2.47;2.30;;;18.90;62.00;19.40;96392.00;;;;5054109;28;20200;-85
2022/05/12 00:54:31;;;;;;;2.60;2.40;;;19.00;62.10;19.40;96390.00;;;;5054111;28;20217;-85
2022/05/12 00:57:00;;;;;;;2.80;2.60;;;18.90;62.10;19.30;96393.00;;;;5053917;28;20568;-85
2022/05/12 00:59:32;;;;;;;2.70;2.50;;;18.80;62.10;19.30;96383.00;;;;5054138;28;20207;-85
2022/05/12 01:02:01;;;;;;;2.83;2.60;;;18.80;62.30;19.30;96384.00;;;;5054301;28;20204;-85
2022/05/12 01:04:31;;;;;;;2.60;2.40;;;18.80;62.30;19.20;96387.00;;;;5059104;28;20219;-84
2022/05/12 01:06:59;;;;;;;2.70;2.50;;;18.70;62.40;19.20;96391.00;;;;5053117;28;20212;-85
2022/05/12 01:09:29;;;;;;;2.80;2.60;;;18.70;63.30;19.20;96392.00;;;;5053627;28;20292;-85
2022/05/12 01:11:56;;;;;;;4.17;2.60;;;18.70;62.80;19.20;96395.00;;;;5053475;28;20669;-84
2022/05/12 01:14:24;;;;;;;2.67;2.47;;;18.70;62.90;19.20;96392.00;;;;5050033;28;20232;-84
2022/05/12 01:16:55;;;;;;;2.57;2.23;;;18.70;63.10;19.10;96396.00;;;;5050793;28;20280;-84
2022/05/12 01:19:25;;;;;;;2.70;2.50;;;18.60;63.20;19.10;96395.00;;;;5053934;28;20172;-85
2022/05/12 01:21:54;;;;;;;2.63;2.43;;;18.60;63.30;19.10;96395.00;;;;5053124;28;20197;-85
2022/05/12 01:24:30;;;;;;;2.97;2.77;;;18.60;63.70;19.10;96396.00;;;;5052649;28;20230;-84
2022/05/12 01:27:18;;;;;;;2.67;2.47;;;18.60;64.10;19.10;96404.00;;;;5053431;28;20590;-85
2022/05/12 01:29:44;;;;;;;2.87;2.67;;;18.60;64.20;19.10;96395.00;;;;5053331;28;20197;-84
2022/05/12 01:32:11;;;;;;;3.20;2.90;;;18.50;64.30;19.10;96399.00;;;;5047363;28;20193;-85
2022/05/12 01:34:39;;;;;;;2.60;2.40;;;18.60;64.60;19.10;96403.00;;;;5037863;28;20217;-84
2022/05/12 01:37:06;;;;;;;2.80;2.47;;;18.50;64.70;19.10;96404.00;;;;5038851;28;20217;-84
2022/05/12 01:39:35;;;;;;;2.63;2.53;;;18.60;64.70;19.10;96399.00;;;;5037061;28;20231;-85
2022/05/12 01:42:05;;;;;;;2.90;2.63;;;18.50;64.70;19.10;96397.00;;;;5053279;28;20270;-85
2022/05/12 01:44:33;;;;;;;2.87;2.67;;;18.50;64.70;19.10;96405.00;;;;5052792;28;20690;-85
2022/05/12 01:47:00;;;;;;;2.80;2.60;;;18.60;64.70;19.10;96400.00;;;;5053018;28;20201;-84
2022/05/12 01:49:28;;;;;;;2.70;2.50;;;18.50;64.60;19.10;96402.00;;;;5053045;28;20192;-85
2022/05/12 01:51:58;;;;;;;2.67;2.50;;;18.50;64.70;19.10;96400.00;;;;5052890;28;20283;-85
2022/05/12 01:54:27;;;;;;;2.50;2.33;;;18.40;64.70;19.10;96401.00;;;;5052608;28;20319;-85
2022/05/12 01:56:57;;;;;;;2.93;2.47;;;18.60;64.90;19.10;96398.00;;;;5052896;28;20204;-85
2022/05/12 01:59:26;;;;;;;2.97;2.77;;;18.60;64.90;19.10;96401.00;;;;5052979;28;20213;-85
2022/05/12 02:01:53;;;;;;;2.87;2.67;;;18.60;65.00;19.10;96399.00;;;;5050995;28;20658;-84
2022/05/12 02:04:20;;;;;;;2.90;2.47;;;18.60;65.10;19.10;96403.00;;;;5035580;28;20217;-83
2022/05/12 02:06:48;;;;;;;2.60;2.40;;;18.60;65.20;19.20;96405.00;;;;5072881;28;20206;-85
2022/05/12 02:09:16;;;;;;;2.50;2.40;;;18.60;65.20;19.20;96408.00;;;;5072871;28;20200;-84
2022/05/12 02:11:43;;;;;;;2.70;2.50;;;18.70;65.30;19.20;96404.00;;;;5072769;28;20193;-85
2022/05/12 02:14:14;;;;;;;2.70;2.50;;;18.60;65.20;19.20;96402.00;;;;5054791;28;20228;-84
2022/05/12 02:16:41;;;;;;;3.50;2.37;;;18.70;65.30;19.30;96406.00;;;;5045384;28;20246;-84
2022/05/12 02:19:09;;;;;;;3.70;2.70;;;18.70;65.10;19.40;96406.00;;;;5052785;28;20201;-84
2022/05/12 02:21:37;;;;;;;2.80;2.63;;;18.70;65.10;19.40;96407.00;;;;5052547;28;20211;-84
2022/05/12 02:24:05;;;;;;;2.73;2.53;;;18.80;65.10;19.50;96401.00;;;;5052114;28;20219;-85
2022/05/12 02:26:33;;;;;;;2.60;2.40;;;18.80;64.90;19.50;96412.00;;;;5052227;28;20193;-84
2022/05/12 02:29:01;;;;;;;4.37;2.63;;;18.90;65.10;19.50;96402.00;;;;5040373;28;20682;-85
2022/05/12 02:31:29;;;;;;;3.03;2.73;;;18.90;65.00;19.60;96409.00;;;;5032597;28;20194;-85
2022/05/12 02:33:57;;;;;;;2.83;2.63;;;19.00;65.20;19.60;96408.00;;;;5051371;28;20255;-85
2022/05/12 02:36:24;;;;;;;2.70;2.50;;;19.00;65.00;19.60;96416.00;;;;5044867;28;20642;-84
2022/05/12 02:38:51;;;;;;;2.30;2.20;;;19.00;64.90;19.70;96417.00;;;;5052435;28;20262;-84
2022/05/12 02:41:18;;;;;;;2.47;2.37;;;19.10;64.80;19.70;96429.00;;;;5054141;28;20208;-84
2022/05/12 02:43:45;;;;;;;2.63;2.43;;;19.10;64.80;19.70;96425.00;;;;5056430;28;20283;-84
2022/05/12 02:46:14;;;;;;;2.57;2.30;;;19.10;64.50;19.70;96429.00;;;;5056336;28;20192;-84
2022/05/12 02:48:45;;;;;;;2.70;2.50;;;19.10;64.30;19.80;96429.00;;;;5056563;28;20224;-85
2022/05/12 02:51:14;;;;;;;2.83;2.10;;;19.20;65.00;19.80;96426.00;;;;5056134;28;20264;-85
2022/05/12 02:53:42;;;;;;;2.77;2.40;;;19.20;64.10;19.90;96429.00;;;;5056468;28;20199;-84
2022/05/12 02:56:10;;;;;;;2.27;2.10;;;19.30;64.10;19.90;96435.00;;;;5039665;28;20209;-84
2022/05/12 02:58:38;;;;;;;2.60;2.50;;;19.30;64.00;20.00;96429.00;;;;5036651;28;20578;-84
2022/05/12 03:01:06;;;;;;;3.00;2.70;;;19.40;63.80;20.00;96444.00;;;;5051910;28;20274;-85
2022/05/12 03:03:33;;;;;;;2.93;2.73;;;19.40;63.80;20.00;96445.00;;;;5056303;28;20657;-84
2022/05/12 03:06:02;;;;;;;2.70;2.27;;;19.50;64.10;20.10;96442.00;;;;5060895;28;20200;-85
2022/05/12 03:08:29;;;;;;;3.87;2.50;;;19.50;64.10;20.10;96445.00;;;;5067726;28;20224;-84
2022/05/12 03:10:56;;;;;;;2.40;2.30;;;19.50;63.70;20.10;96440.00;;;;5074824;28;20215;-85
2022/05/12 03:13:24;;;;;;;2.73;2.53;;;19.50;63.70;20.10;96444.00;;;;5068459;28;20200;-85
2022/05/12 03:15:51;;;;;;;2.70;2.60;;;19.50;63.70;20.10;96443.00;;;;5055700;28;20201;-83
2022/05/12 03:18:19;;;;;;;2.63;2.40;;;19.60;63.80;20.20;96440.00;;;;5055159;28;20741;-85
2022/05/12 03:20:47;;;;;;;2.60;2.40;;;19.60;63.90;20.20;96449.00;;;;5056113;28;20566;-85
2022/05/12 03:23:15;;;;;;;2.60;2.40;;;19.60;63.90;20.10;96450.00;;;;5055854;28;20193;-85
2022/05/12 03:25:43;;;;;;;2.80;2.60;;;19.60;64.10;20.10;96445.00;;;;5049040;28;20209;-85
2022/05/12 03:28:10;;;;;;;2.20;2.07;;;19.60;64.10;20.10;96451.00;;;;5057390;28;20220;-84
2022/05/12 03:30:38;;;;;;;2.80;2.50;;;19.60;64.30;20.10;96451.00;;;;5068957;28;20274;-84
2022/05/12 03:33:05;;;;;;;2.87;2.67;;;19.60;64.50;20.10;96459.00;;;;5055899;28;20203;-85
2022/05/12 03:35:33;;;;;;;3.03;2.80;;;19.60;64.60;20.10;96461.00;;;;5055650;28;20248;-84
2022/05/12 03:38:00;;;;;;;2.47;2.27;;;19.60;64.30;20.10;96462.00;;;;5054543;28;20201;-84
2022/05/12 03:40:28;;;;;;;2.77;2.40;;;19.50;64.10;20.10;96472.00;;;;5055523;28;20199;-85
2022/05/12 03:42:58;;;;;;;2.80;2.60;;;19.50;64.10;20.10;96467.00;;;;5055133;28;20288;-85
2022/05/12 03:45:24;;;;;;;2.60;2.40;;;19.50;64.80;20.10;96466.00;;;;5055784;28;20217;-85
2022/05/12 03:47:51;;;;;;;2.60;2.30;;;19.50;64.00;20.10;96472.00;;;;5055179;28;20315;-84
2022/05/12 03:50:23;;;;;;;2.80;2.60;;;19.50;64.20;20.10;96471.00;;;;5055291;28;20189;-85
2022/05/12 03:52:52;;;;;;;2.60;2.40;;;19.40;64.10;20.00;96483.00;;;;5055122;28;21062;-84
2022/05/12 03:55:24;;;;;;;2.97;2.67;;;19.50;64.10;20.00;96479.00;;;;5054449;28;20216;-85
2022/05/12 03:57:55;;;;;;;2.90;2.70;;;19.50;64.20;20.00;96483.00;;;;5058030;28;20215;-85
2022/05/12 04:00:27;;;;;;;2.70;2.50;;;19.40;64.20;20.00;96479.00;;;;5063529;28;20230;-83
2022/05/12 04:02:54;;;;;;;2.60;2.40;;;19.40;64.20;19.90;96487.00;;;;5043665;28;20212;-84
2022/05/12 04:05:22;;;;;;;3.17;2.40;;;19.40;64.10;19.90;96489.00;;;;5063033;28;20225;-85
2022/05/12 04:07:49;;;;;;;2.70;2.50;;;19.40;64.10;19.90;96496.00;;;;5056475;28;20236;-85
2022/05/12 04:10:16;;;;;;;6.93;2.67;;;19.40;64.30;19.90;96499.00;;;;5071424;28;20235;-85
2022/05/12 04:12:44;;;;;;;2.47;2.27;;;19.40;64.40;19.90;96499.00;;;;5072238;28;20192;-84
2022/05/12 04:15:15;;;;;;;2.53;2.33;;;19.30;64.50;19.90;96502.00;;;;5054478;28;20235;-85
2022/05/12 04:17:43;;;;;;;2.37;2.27;;;19.30;64.50;19.80;96504.00;;;;5054996;28;20197;-85
2022/05/12 04:20:12;;;;;;;2.27;2.17;;;19.40;64.50;19.80;96507.00;;;;5055022;28;20207;-85
2022/05/12 04:22:43;;;;;;;2.50;2.30;;;19.30;64.40;19.80;96509.00;;;;5056159;28;20262;-91
2022/05/12 04:25:11;;;;;;;2.60;2.30;;;19.30;64.40;19.80;96517.00;;;;5056380;28;20217;-91
2022/05/12 04:27:39;;;;;;;2.80;2.60;;;19.30;64.40;19.90;96517.00;;;;5055580;28;20612;-88
2022/05/12 04:30:09;;;;;;;1.93;1.80;;;19.30;64.60;19.90;96525.00;;;;5047186;28;20201;-88
2022/05/12 04:32:37;;;;;;;2.67;1.90;;;19.30;64.90;20.00;96526.00;;;;5048670;28;20193;-91
2022/05/12 04:35:11;;;;;;;2.27;2.17;;;19.30;64.50;20.00;96533.00;;;;5054802;28;20242;-91
2022/05/12 04:37:41;;;;;;;2.10;2.00;;;19.30;64.50;20.10;96536.00;;;;5055158;28;20572;-91
2022/05/12 04:40:12;;;;;;;1.90;1.80;;;19.40;64.50;20.20;96538.00;;;;5054853;28;20291;-90
2022/05/12 04:42:40;;;;;;;2.40;2.10;;;19.40;64.50;20.20;96542.00;;;;5054759;28;20563;-92
2022/05/12 04:45:09;;;;;;;3.07;2.17;;;19.40;64.80;20.30;96543.00;;;;5068900;28;20307;-90
2022/05/12 04:47:40;;;;;;;2.00;1.90;;;19.50;65.30;20.40;96543.00;;;;5065347;28;20202;-90
2022/05/12 04:50:14;;;;;;;2.43;2.00;;;19.70;65.30;20.40;96545.00;;;;5049269;28;20208;-91
2022/05/12 04:52:41;;;;;;;3.80;2.20;;;19.60;65.30;20.50;96549.00;;;;5055143;28;20272;-92
2022/05/12 04:55:10;;;;;;;2.47;2.37;;;19.70;65.20;20.50;96555.00;;;;5053862;28;20217;-91
2022/05/12 04:57:39;;;;;;;2.57;2.13;;;19.70;64.90;20.60;96559.00;;;;5053399;28;20204;-91
2022/05/12 05:00:10;;;;;;;2.23;1.90;;;19.80;64.90;20.70;96556.00;;;;5046033;28;20193;-91
2022/05/12 05:02:38;;;;;;;3.50;1.97;;;19.90;64.90;20.80;96558.00;;;;5057989;28;20277;-91
2022/05/12 05:05:07;;;;;;;1.93;1.83;;;19.90;64.70;20.80;96566.00;;;;5055825;28;20637;-93
2022/05/12 05:07:35;;;;;;;1.83;1.73;;;20.00;64.70;20.90;96570.00;;;;5056498;28;20280;-91
2022/05/12 05:10:02;;;;;;;2.87;2.10;;;20.20;64.70;21.00;96585.00;;;;5054606;28;20214;-91
2022/05/12 05:12:31;;;;;;;2.20;2.00;;;20.20;64.40;21.20;96579.00;;;;5056496;28;20223;-92
2022/05/12 05:14:58;;;;;;;2.10;1.90;;;20.30;64.60;21.20;96592.00;;;;5054654;28;20226;-89
2022/05/12 05:17:26;;;;;;;1.90;1.73;;;20.40;64.40;21.30;96593.00;;;;5046756;28;20198;-90
2022/05/12 05:19:54;;;;;;;2.03;1.80;;;20.50;64.30;21.50;96602.00;;;;5053998;28;20208;-91
2022/05/12 05:22:21;;;;;;;1.70;1.60;;;20.60;64.30;21.60;96597.00;;;;5056499;28;20256;-91
2022/05/12 05:24:48;;;;;;;1.90;1.80;;;20.70;64.20;21.70;96610.00;;;;5053049;28;20312;-91
2022/05/12 05:27:15;;;;;;;2.17;1.97;;;20.80;64.20;21.80;96620.00;;;;5055760;28;20282;-91
2022/05/12 05:29:43;;;;;;;1.90;1.80;;;20.90;63.80;21.90;96622.00;;;;5057616;28;20307;-92
2022/05/12 05:32:11;;;;;;;1.70;1.60;;;21.00;63.40;22.00;96616.00;;;;5057818;28;20690;-92
2022/05/12 05:34:39;;;;;;;1.90;1.70;;;21.20;63.40;22.20;96629.00;;;;5058722;28;20235;-92
2022/05/12 05:37:07;;;;;;;1.77;1.60;;;21.20;63.10;22.30;96640.00;;;;5054238;28;20197;-92
2022/05/12 05:39:35;;;;;;;2.00;1.90;;;21.40;62.90;22.40;96634.00;;;;5060158;28;20288;-91
2022/05/12 05:42:07;;;;;;;1.83;1.70;;;21.50;62.90;22.50;96641.00;;;;5060221;28;20208;-92
2022/05/12 05:44:35;;;;;;;2.80;1.80;;;21.60;63.20;22.60;96640.00;;;;5058948;28;20240;-91
2022/05/12 05:47:03;;;;;;;1.60;1.50;;;21.70;62.60;22.70;96652.00;;;;5066924;28;20260;-90
2022/05/12 05:49:30;;;;;;;1.77;1.60;;;21.80;62.20;22.80;96652.00;;;;5067990;28;20224;-91
2022/05/12 05:54:43;;;;;;;1.70;1.60;;;22.00;61.00;23.00;96658.00;;;;5036556;28;20589;-90
2022/05/12 05:57:11;;;;;;;1.97;1.87;;;22.10;60.50;23.10;96659.00;;;;5066358;28;20200;-91
2022/05/12 05:59:38;;;;;;;1.60;1.50;;;22.20;60.50;23.20;96666.00;;;;5066674;28;20626;-91
2022/05/12 06:02:07;;;;;;;3.90;1.67;;;22.30;60.50;23.30;96669.00;;;;5061978;28;20223;-92
2022/05/12 06:04:34;;;;;;;2.10;1.47;;;22.40;60.50;23.40;96674.00;;;;5043135;28;20237;-92
2022/05/12 06:07:01;;;;;;;1.57;1.47;;;22.50;60.30;23.50;96672.00;;;;5052495;28;20201;-91
2022/05/12 06:09:29;;;;;;;1.53;1.43;;;22.60;60.20;23.50;96678.00;;;;5052313;28;20595;-90
2022/05/12 06:11:57;;;;;;;1.40;1.30;;;22.60;59.70;23.60;96685.00;;;;5052614;28;20201;-91
2022/05/12 06:14:24;;;;;;;1.57;1.40;;;22.70;59.50;23.70;96689.00;;;;5053046;28;20221;-91
2022/05/12 06:16:51;;;;;;;1.77;1.43;;;22.80;59.40;23.80;96691.00;;;;5042110;28;20193;-92
2022/05/12 06:19:19;;;;;;;4.63;2.27;;;22.90;59.20;23.90;96698.00;;;;5054417;28;20285;-92
2022/05/12 06:21:46;;;;;;;1.80;1.50;;;23.00;59.10;24.00;96697.00;;;;5056130;28;20207;-92
2022/05/12 06:24:13;;;;;;;2.30;1.50;;;23.10;59.10;24.00;96698.00;;;;5054246;28;20228;-92
2022/05/12 06:26:40;;;;;;;1.50;1.40;;;23.00;58.70;24.10;96705.00;;;;5053670;28;20205;-92
2022/05/12 06:29:08;;;;;;;2.03;1.63;;;23.20;58.80;24.20;96705.00;;;;5040541;28;20213;-91
2022/05/12 06:31:35;;;;;;;1.40;1.30;;;23.30;58.70;24.30;96707.00;;;;5053510;28;20282;-91
2022/05/12 06:34:02;;;;;;;2.27;1.50;;;23.40;58.50;24.40;96706.00;;;;5054144;28;20301;-92
2022/05/12 06:36:30;;;;;;;1.60;1.40;;;23.40;58.80;24.50;96720.00;;;;5049982;28;20206;-91
2022/05/12 06:38:57;;;;;;;2.33;1.47;;;23.50;58.20;24.50;96719.00;;;;5050420;28;20551;-92
2022/05/12 06:41:26;;;;;;;2.43;1.80;;;23.60;58.00;24.60;96721.00;;;;5053897;28;20362;-92
2022/05/12 06:43:53;;;;;;;2.47;1.70;;;23.70;57.80;24.70;96725.00;;;;5053373;28;20237;-91
2022/05/12 06:46:25;;;;;;;1.73;1.63;;;23.80;57.50;24.70;96727.00;;;;5052672;28;20232;-91
2022/05/12 06:48:52;;;;;;;1.50;1.40;;;23.80;57.40;24.80;96727.00;;;;5051114;28;20216;-91
2022/05/12 06:51:20;;;;;;;2.80;1.40;;;23.90;57.90;24.90;96721.00;;;;5052816;28;20575;-91
2022/05/12 06:53:47;;;;;;;1.43;1.33;;;24.00;57.60;24.90;96735.00;;;;5052616;28;20222;-91
2022/05/12 06:56:14;;;;;;;2.90;1.67;;;24.00;57.70;24.90;96729.00;;;;5052920;28;20205;-92
2022/05/12 06:58:42;;;;;;;2.10;1.50;;;24.10;57.20;25.00;96736.00;;;;5046534;28;20197;-91
2022/05/12 07:01:10;;;;;;;1.63;1.47;;;24.10;57.30;25.00;96730.00;;;;5052797;28;20211;-92
2022/05/12 07:03:38;;;;;;;1.60;1.30;;;24.20;57.20;25.00;96742.00;;;;5052561;28;20206;-92
2022/05/12 07:06:06;;;;;;;2.43;1.60;;;24.20;56.80;25.00;96739.00;;;;5052869;28;20212;-92
2022/05/12 07:08:37;;;;;;;1.53;1.43;;;24.30;56.70;25.10;96731.00;;;;5053151;28;20200;-92
2022/05/12 07:11:04;;;;;;;2.50;1.50;;;24.30;56.40;25.20;96742.00;;;;5053693;28;20266;-92
2022/05/12 07:13:31;;;;;;;1.73;1.20;;;24.40;56.50;25.30;96744.00;;;;5039625;28;20290;-91
2022/05/12 07:15:58;;;;;;;1.50;1.40;;;24.40;56.40;25.40;96752.00;;;;5060420;28;20227;-89
2022/05/12 07:18:25;;;;;;;2.33;1.60;;;24.50;55.70;25.50;96750.00;;;;5065700;28;20580;-91
2022/05/12 07:26:40;;;;;;;1.37;1.27;;;24.80;55.60;26.00;96744.00;;;;5056417;28;20208;-92
2022/05/12 07:29:11;;;;;;;2.57;1.07;;;24.90;55.50;26.10;96749.00;;;;5056491;28;20736;-91
2022/05/12 07:31:39;;;;;;;2.30;1.27;;;25.10;55.20;26.40;96754.00;;;;5058106;28;20200;-91
2022/05/12 07:34:07;;;;;;;2.83;1.40;;;25.20;55.40;26.60;96751.00;;;;5058409;28;20208;-90
2022/05/12 07:36:40;;;;;;;3.27;1.60;;;25.40;55.40;26.80;96757.00;;;;5058461;28;20261;-91
2022/05/12 07:39:08;;;;;;;2.53;1.23;;;25.60;54.10;27.00;96761.00;;;;5056503;28;20204;-91
2022/05/12 07:41:38;;;;;;;1.53;1.43;;;25.70;54.00;27.10;96762.00;;;;5037515;28;20197;-90
2022/05/12 07:44:06;;;;;;;2.00;1.20;;;25.90;53.40;27.30;96774.00;;;;5056029;28;20221;-91
2022/05/12 07:46:33;;;;;;;2.30;1.57;;;26.00;53.00;27.50;96767.00;;;;5053279;28;20225;-92
2022/05/12 07:49:00;;;;;;;1.63;1.30;;;26.20;52.90;27.70;96775.00;;;;5056411;28;20217;-91
2022/05/12 07:51:30;;;;;;;1.40;1.30;;;26.40;52.90;27.90;96774.00;;;;5056357;28;20662;-91
2022/05/12 07:53:58;;;;;;;1.47;1.30;;;26.60;52.60;28.10;96767.00;;;;5055491;28;20236;-91
2022/05/12 07:56:29;;;;;;;1.20;1.10;;;26.70;52.10;28.30;96767.00;;;;5059616;28;20200;-92
2022/05/12 07:59:00;;;;;;;1.40;1.30;;;26.90;51.80;28.50;96770.00;;;;5047357;28;20205;-92
2022/05/12 08:01:28;;;;;;;1.10;1.00;;;27.10;51.70;28.70;96764.00;;;;5049737;28;20244;-92
2022/05/12 08:03:56;;;;;;;1.65;1.40;;;27.20;51.50;28.90;96768.00;;;;5051227;28;20236;-91
2022/05/12 08:06:23;;;;;;;1.73;1.27;;;27.40;51.40;29.10;96761.00;;;;5055231;28;20258;-91
2022/05/12 08:08:52;;;;;;;2.92;1.30;;;27.60;51.00;29.30;96769.00;;;;5061498;28;20210;-93
2022/05/12 08:11:21;;;;;;;3.92;1.40;;;27.70;50.90;29.50;96767.00;;;;5060633;28;20732;-93
2022/05/12 08:13:49;;;;;;;2.08;1.20;;;27.90;51.00;29.80;96765.00;;;;5063819;28;20232;-91
2022/05/12 08:16:17;;;;;;;1.48;1.38;;;28.00;50.90;30.00;96763.00;;;;5056850;28;20201;-93
2022/05/12 08:18:46;;;;;;;1.80;1.48;;;28.10;50.80;30.30;96775.00;;;;5066862;28;20197;-91
2022/05/12 08:21:14;;;;;;;1.70;1.50;;;28.30;50.90;30.50;96788.00;;;;5064514;28;20798;-92
2022/05/12 08:23:41;;;;;;;2.35;1.30;;;28.50;50.40;30.70;96784.00;;;;5066456;28;20227;-91
2022/05/12 08:26:09;;;;;;;1.60;1.50;;;28.70;50.30;31.00;96785.00;;;;5059820;28;20200;-92
2022/05/12 08:28:40;;;;;;;2.35;1.70;;;28.80;49.80;31.30;96788.00;;;;5058411;28;20292;-92
2022/05/12 08:31:07;;;;;;;3.60;1.33;;;29.00;49.70;31.60;96786.00;;;;5055996;28;20279;-92
2022/05/12 08:33:34;;;;;;;1.55;1.20;;;29.20;49.30;31.90;96793.00;;;;5042328;28;20224;-92
2022/05/12 08:36:02;;;;;;;1.67;1.20;;;29.40;48.70;32.30;96791.00;;;;5055113;28;20577;-92
2022/05/12 08:38:29;;;;;;;3.50;1.45;;;29.70;49.00;32.70;96788.00;;;;5067349;28;20651;-90
2022/05/12 08:41:18;;;;;;;1.60;1.50;;;29.90;49.00;33.20;96796.00;;;;5074562;28;20207;-92
2022/05/12 08:43:57;;;;;;;3.90;1.50;;;30.20;47.80;33.80;96798.00;;;;5056877;28;20177;-91
2022/05/12 08:46:30;;;;;;;2.92;1.30;;;30.60;46.90;34.10;96800.00;;;;5054492;28;20288;-92
2022/05/12 08:49:08;;;;;;;1.30;1.20;;;31.00;48.00;34.40;96800.00;;;;5043611;28;20201;-91
2022/05/12 08:51:37;;;;;;;1.80;1.48;;;31.40;46.80;34.70;96799.00;;;;5051644;28;20207;-91
2022/05/12 08:54:18;;;;;;;2.33;1.50;;;31.70;46.70;34.70;96806.00;;;;5055253;28;20278;-91
2022/05/12 08:56:45;;;;;;;2.10;1.70;;;32.00;45.70;34.50;96800.00;;;;5048589;28;20610;-92
2022/05/12 08:59:18;;;;;;;1.52;1.42;;;32.20;45.30;34.40;96799.00;;;;5049261;28;20224;-92
2022/05/12 09:02:19;;;;;;;1.52;1.30;;;32.30;45.40;34.40;96803.00;;;;5047381;28;20197;-92
2022/05/12 09:05:09;;;;;;;1.73;1.60;;;32.50;43.50;34.50;96805.00;;;;5034889;28;20243;-91
2022/05/12 09:07:48;;;;;;;1.80;1.20;;;32.60;43.70;34.60;96798.00;;;;5044367;28;20197;-90
2022/05/12 09:10:42;;;;;;;2.38;1.70;;;32.80;43.80;34.80;96806.00;;;;5053933;28;20223;-88
2022/05/12 09:13:16;;;;;;;3.33;1.52;;;33.00;42.60;35.10;96803.00;;;;5054105;28;20287;-88
2022/05/12 09:15:54;;;;;;;1.35;1.25;;;33.30;44.00;35.40;96804.00;;;;5053827;28;20285;-87
2022/05/12 09:18:29;;;;;;;1.92;1.10;;;33.60;44.10;35.70;96804.00;;;;5053995;28;20226;-87
2022/05/12 09:21:02;;;;;;;2.65;1.25;;;34.00;43.60;36.00;96806.00;;;;5054161;28;20213;-84
2022/05/12 09:23:29;;;;;;;2.00;1.15;;;34.40;43.40;36.20;96800.00;;;;5053879;28;20280;-88
2022/05/12 09:25:56;;;;;;;2.72;1.50;;;34.70;42.50;36.30;96813.00;;;;5054297;28;20283;-87
2022/05/12 09:28:33;;;;;;;1.40;1.30;;;35.00;41.90;36.20;96819.00;;;;5053732;28;20561;-87
2022/05/12 09:31:18;;;;;;;3.45;1.60;;;35.20;40.60;36.00;96816.00;;;;5053850;28;20223;-87
2022/05/12 09:33:48;;;;;;;1.50;1.40;;;35.20;39.50;35.80;96817.00;;;;5056170;28;20212;-87
2022/05/12 09:36:27;;;;;;;1.95;1.30;;;35.10;39.90;35.70;96811.00;;;;5053508;28;20279;-89
2022/05/12 09:38:56;;;;;;;1.73;1.20;;;35.10;39.90;35.70;96809.00;;;;5053548;28;20214;-88
2022/05/12 09:41:36;;;;;;;1.60;1.50;;;35.10;40.50;35.80;96813.00;;;;5053536;28;20307;-89
2022/05/12 09:44:19;;;;;;;1.60;1.50;;;35.10;40.20;35.70;96818.00;;;;5053415;28;20615;-88
2022/05/12 09:46:59;;;;;;;2.13;1.17;;;35.10;39.10;35.60;96825.00;;;;5053269;28;20195;-87
2022/05/12 09:49:33;;;;;;;1.17;1.08;;;35.10;39.50;35.50;96813.00;;;;5053369;28;20282;-87
2022/05/12 09:52:28;;;;;;;1.20;1.10;;;35.10;39.80;35.40;96819.00;;;;5052712;28;20208;-86
2022/05/12 09:55:14;;;;;;;3.15;1.40;;;35.10;40.30;35.50;96813.00;;;;5053348;28;20274;-88
2022/05/12 09:57:53;;;;;;;1.40;1.30;;;35.20;39.20;35.60;96821.00;;;;5053585;28;20572;-88
2022/05/12 10:00:35;;;;;;;1.42;1.30;;;35.20;39.50;35.60;96822.00;;;;5053689;28;20764;-89
2022/05/12 10:09:06;;;;;;;1.42;1.30;;;35.70;40.00;36.00;96803.00;;;;5054410;28;20196;-88
2022/05/12 10:11:48;;;;;;;3.78;1.35;;;35.90;38.30;36.20;96807.00;;;;5054167;28;20201;-87
2022/05/12 10:14:40;;;;;;;1.05;1.00;;;36.10;39.10;36.30;96809.00;;;;5053880;28;20314;-88
2022/05/12 10:17:26;;;;;;;1.77;1.40;;;36.30;38.80;36.40;96803.00;;;;5055248;28;20201;-88
2022/05/12 10:19:58;;;;;;;1.30;1.02;;;36.50;38.80;36.50;96813.00;;;;5053081;28;20230;-89
2022/05/12 10:22:34;;;;;;;1.70;1.10;;;36.60;38.60;36.50;96809.00;;;;5053153;28;20272;-87
2022/05/12 10:25:17;;;;;;;1.25;1.25;;;36.70;37.70;36.50;96816.00;;;;5052343;28;20635;-87
2022/05/12 10:27:54;;;;;;;1.55;1.33;;;36.70;37.10;36.50;96822.00;;;;5052629;28;20704;-89
2022/05/12 10:30:41;;;;;;;1.55;1.20;;;36.70;36.60;36.40;96807.00;;;;5052128;28;20697;-88
2022/05/12 10:33:38;;;;;;;1.45;1.30;;;36.70;36.40;36.30;96809.00;;;;5051927;28;20258;-87
2022/05/12 10:36:23;;;;;;;1.20;1.10;;;36.60;36.80;36.20;96814.00;;;;5053057;28;20276;-87
2022/05/12 10:39:02;;;;;;;2.20;1.42;;;36.50;37.10;36.00;96813.00;;;;5032958;28;20272;-86
2022/05/12 10:41:35;;;;;;;1.38;1.25;;;36.30;37.10;35.90;96820.00;;;;5032881;28;20244;-86
2022/05/12 10:44:33;;;;;;;1.85;1.60;;;36.00;37.10;35.60;96815.00;;;;5034300;28;20221;-87
2022/05/12 10:47:13;;;;;;;1.60;1.17;;;35.70;36.30;35.40;96813.00;;;;5033149;28;20265;-89
2022/05/12 10:49:52;;;;;;;1.48;1.35;;;35.50;37.60;35.20;96813.00;;;;5033178;28;20576;-86
2022/05/12 10:52:29;;;;;;;2.75;1.80;;;35.20;37.40;35.00;96806.00;;;;5036097;28;20197;-86
2022/05/12 10:55:28;;;;;;;1.98;1.70;;;34.90;37.70;34.70;96807.00;;;;5037254;28;20267;-86
2022/05/12 10:58:26;;;;;;;4.18;1.30;;;34.60;37.20;34.40;96801.00;;;;5053154;28;20177;-87
2022/05/12 11:01:16;;;;;;;1.35;1.25;;;34.20;37.80;34.10;96806.00;;;;5034331;28;20297;-86
2022/05/12 11:03:53;;;;;;;1.38;1.27;;;33.90;37.80;33.90;96804.00;;;;5035356;28;20267;-86
2022/05/12 11:06:32;;;;;;;1.63;1.52;;;33.60;38.70;33.70;96808.00;;;;5056215;28;20203;-85
2022/05/12 11:09:07;;;;;;;1.73;1.38;;;33.30;39.30;33.50;96802.00;;;;5042229;28;20578;-86
2022/05/12 11:11:41;;;;;;;1.50;1.38;;;33.10;38.60;33.20;96803.00;;;;5055116;28;20231;-88
2022/05/12 11:14:16;;;;;;;1.90;1.80;;;32.80;38.90;32.90;96790.00;;;;5055905;28;20236;-88
2022/05/12 11:17:01;;;;;;;2.63;2.05;;;32.60;39.40;32.70;96794.00;;;;5055868;28;20721;-88
2022/05/12 11:19:28;;;;;;;1.90;1.77;;;32.30;39.60;32.50;96781.00;;;;5056998;28;20192;-88
2022/05/12 11:22:16;;;;;;;2.10;1.90;;;32.10;40.40;32.40;96780.00;;;;5057599;28;20232;-88
2022/05/12 11:24:56;;;;;;;2.17;1.75;;;31.90;40.80;32.20;96779.00;;;;5055049;28;20330;-88